Time;durP1;ratioP1;P1;durP2;ratioP2;P2;SDS_P1;SDS_P2;PMS_P1;PMS_P2;Temp;Humidity;BMP_temperature;BMP_pressure;BME280_temperature;BME280_humidity;BME280_pressure;Samples;Min_cycle;Max_cycle;Signal;HPM_P1;HPM_P2
2024/01/12 00:00:00;;;;;;;16.13;9.70;;;-0.40;99.90;;;-141.84;100.00;119224.81;5090531;28;20231;-61
2024/01/12 00:02:28;;;;;;;16.50;9.20;;;-0.40;99.90;;;-141.84;100.00;119224.81;5109015;28;20214;-60
2024/01/12 00:04:56;;;;;;;17.50;9.63;;;-0.40;99.90;;;-141.84;100.00;119224.81;5109649;28;20593;-61
2024/01/12 00:07:25;;;;;;;17.53;8.83;;;-0.40;99.90;;;-141.84;100.00;119224.81;5093087;28;20621;-61
2024/01/12 00:09:53;;;;;;;16.83;9.10;;;-0.40;99.90;;;-141.84;100.00;119224.81;5089711;28;20299;-60
2024/01/12 00:12:21;;;;;;;16.00;8.83;;;-0.40;99.90;;;-141.84;100.00;119224.81;5087447;28;20247;-59
2024/01/12 00:14:50;;;;;;;17.40;9.60;;;-0.40;99.90;;;-141.84;100.00;119224.81;5089153;28;20245;-61
2024/01/12 00:17:19;;;;;;;20.40;9.93;;;-0.30;99.90;;;-141.84;100.00;119224.81;5086236;28;20684;-60
2024/01/12 00:19:48;;;;;;;18.23;9.23;;;-0.40;99.90;;;-141.84;100.00;119224.81;5084030;28;20630;-60
2024/01/12 00:22:16;;;;;;;18.50;8.67;;;-0.40;99.90;;;-141.84;100.00;119224.81;5098756;28;20272;-59
2024/01/12 00:24:44;;;;;;;14.93;8.47;;;-0.30;99.90;;;-141.84;100.00;119224.81;5105244;28;20250;-61
2024/01/12 00:27:12;;;;;;;14.10;8.30;;;-0.40;99.90;;;-141.84;100.00;119224.81;5110494;28;20659;-60
2024/01/12 00:29:41;;;;;;;14.30;8.53;;;-0.30;99.90;;;-141.84;100.00;119224.81;5114464;28;20194;-60
2024/01/12 00:32:09;;;;;;;16.33;8.80;;;-0.40;99.90;;;-141.84;100.00;119224.81;5114838;28;20190;-60
2024/01/12 00:34:39;;;;;;;17.90;9.50;;;-0.30;99.90;;;-141.84;100.00;119224.81;5108090;28;20761;-61
2024/01/12 00:37:07;;;;;;;15.93;9.40;;;-0.30;99.90;;;-141.84;100.00;119224.81;5114550;27;20220;-61
2024/01/12 00:39:36;;;;;;;14.63;8.40;;;-0.30;99.90;;;-141.84;100.00;119224.81;5114678;28;20269;-60
2024/01/12 00:42:06;;;;;;;15.93;8.90;;;-0.30;99.90;;;-141.84;100.00;119224.81;5114766;28;20240;-61
2024/01/12 00:44:34;;;;;;;14.10;7.70;;;-0.30;99.90;;;-141.84;100.00;119224.81;5114743;27;20235;-61
2024/01/12 00:47:02;;;;;;;14.97;8.10;;;-0.30;99.90;;;-141.84;100.00;119224.81;5114984;28;20275;-61
2024/01/12 00:49:30;;;;;;;13.23;8.37;;;-0.30;99.90;;;-141.84;100.00;119224.81;5114418;28;20273;-60
2024/01/12 00:52:00;;;;;;;14.90;8.20;;;-0.40;99.90;;;-141.84;100.00;119224.81;5108465;28;20225;-60
2024/01/12 00:54:28;;;;;;;13.20;7.27;;;-0.30;99.90;;;-141.84;100.00;119224.81;5114081;27;20660;-61
2024/01/12 00:56:56;;;;;;;12.50;7.27;;;-0.50;99.90;;;-141.84;100.00;119224.81;5114664;28;20221;-60
2024/01/12 00:59:25;;;;;;;13.13;7.03;;;-0.30;99.90;;;-141.84;100.00;119224.81;5114902;28;20202;-59
2024/01/12 01:01:57;;;;;;;13.37;6.90;;;-0.30;99.90;;;-141.84;100.00;119224.81;5105074;28;20219;-60
2024/01/12 01:04:26;;;;;;;11.47;6.63;;;-0.30;99.90;;;-141.84;100.00;119224.81;5096565;28;20238;-59
2024/01/12 01:06:55;;;;;;;13.73;6.87;;;-0.30;99.90;;;-141.84;100.00;119224.81;5092991;28;20224;-60
2024/01/12 01:09:25;;;;;;;12.23;7.03;;;-0.40;99.90;;;-141.84;100.00;119224.81;5092979;28;20227;-60
2024/01/12 01:11:53;;;;;;;13.23;7.30;;;-0.40;99.90;;;-141.84;100.00;119224.81;5089804;28;20306;-60
2024/01/12 01:14:24;;;;;;;13.07;6.90;;;-0.40;99.90;;;-141.84;100.00;119224.81;5083969;28;20566;-60
2024/01/12 01:16:53;;;;;;;11.10;6.73;;;-0.40;99.90;;;-141.84;100.00;119224.81;5093509;28;20202;-61
2024/01/12 01:19:22;;;;;;;11.77;6.90;;;-0.30;99.90;;;-141.84;100.00;119224.81;5101188;28;20225;-61
2024/01/12 01:21:51;;;;;;;12.77;6.83;;;-0.30;99.90;;;-141.84;100.00;119224.81;5091526;28;20231;-61
2024/01/12 01:24:19;;;;;;;9.90;5.53;;;-0.30;99.90;;;-141.84;100.00;119224.81;5089178;28;20227;-60
2024/01/12 01:26:47;;;;;;;12.87;6.77;;;-0.40;99.90;;;-141.84;100.00;119224.81;5099666;28;20247;-61
2024/01/12 01:29:16;;;;;;;11.30;6.33;;;-0.40;99.90;;;-141.84;100.00;119224.81;5084810;28;20213;-61
2024/01/12 01:31:44;;;;;;;10.93;6.30;;;-0.20;99.90;;;-141.84;100.00;119224.81;5112406;27;20218;-60
2024/01/12 01:34:12;;;;;;;10.93;6.60;;;-0.40;99.90;;;-141.84;100.00;119224.81;5113041;28;20224;-60
2024/01/12 01:36:41;;;;;;;9.83;6.33;;;-0.40;99.90;;;-141.84;100.00;119224.81;5111266;28;20211;-60
2024/01/12 01:39:09;;;;;;;10.37;6.57;;;-0.30;99.90;;;-141.84;100.00;119222.75;5113580;28;20225;-61
2024/01/12 01:41:37;;;;;;;8.93;6.10;;;-0.30;99.90;;;-141.84;100.00;118956.03;5113557;28;20618;-61
2024/01/12 01:44:08;;;;;;;11.27;6.50;;;-0.40;99.90;;;-141.84;100.00;118689.38;5114030;28;20187;-61
2024/01/12 01:46:36;;;;;;;11.63;7.30;;;-0.30;99.90;;;-141.84;100.00;118956.03;5085971;28;20251;-61
2024/01/12 01:49:05;;;;;;;12.77;6.50;;;-0.40;99.90;;;-141.84;100.00;119222.75;5105004;28;20754;-61
2024/01/12 01:51:34;;;;;;;11.03;6.47;;;-0.40;99.90;;;-141.84;100.00;119222.75;5110893;28;20221;-61
2024/01/12 01:54:03;;;;;;;13.80;7.13;;;-0.40;99.90;;;-141.84;100.00;119224.81;5109715;28;20241;-60
2024/01/12 01:56:31;;;;;;;10.37;6.57;;;-0.40;99.90;;;-141.84;100.00;119224.81;5113485;28;20273;-61
2024/01/12 01:59:00;;;;;;;10.60;6.10;;;-0.40;99.90;;;-141.84;100.00;119224.81;5113868;28;20192;-60
2024/01/12 02:01:29;;;;;;;10.67;6.10;;;-0.40;99.90;;;-141.84;100.00;119224.81;5106312;28;20306;-61
2024/01/12 02:03:58;;;;;;;9.67;6.00;;;-0.40;99.90;;;-141.84;100.00;119224.81;5111891;28;20223;-60
2024/01/12 02:06:28;;;;;;;9.23;5.63;;;-0.40;99.90;;;-141.84;100.00;119224.81;5112909;28;20664;-60
2024/01/12 02:08:57;;;;;;;8.70;5.93;;;-0.40;99.90;;;-141.84;100.00;119224.81;5112863;28;20236;-62
2024/01/12 02:11:26;;;;;;;10.80;6.33;;;-0.40;99.90;;;-141.84;100.00;119224.81;5113866;28;20192;-61
2024/01/12 02:13:54;;;;;;;12.83;6.77;;;-0.50;99.90;;;-141.84;100.00;119224.81;5106666;28;20295;-61
2024/01/12 02:16:23;;;;;;;10.37;6.30;;;-0.50;99.90;;;-141.84;100.00;119224.81;5085595;28;20253;-62
2024/01/12 02:18:52;;;;;;;10.60;6.57;;;-0.50;99.90;;;-141.84;100.00;119224.81;5092743;28;20221;-61
2024/01/12 02:21:22;;;;;;;10.57;5.90;;;-0.50;99.90;;;-141.84;100.00;119224.81;5092144;28;20231;-61
2024/01/12 02:23:50;;;;;;;11.17;6.70;;;-0.50;99.90;;;-141.84;100.00;119224.81;5093164;28;20227;-61
2024/01/12 02:26:18;;;;;;;9.80;6.43;;;-0.50;99.90;;;-141.84;100.00;119224.81;5092372;28;20229;-61
2024/01/12 02:28:48;;;;;;;9.60;6.03;;;-0.60;99.90;;;-141.84;100.00;119224.81;5090692;28;20227;-62
2024/01/12 02:31:17;;;;;;;12.77;6.37;;;-0.60;99.90;;;-141.84;100.00;119224.81;5092069;28;20259;-63
2024/01/12 02:33:49;;;;;;;12.33;6.80;;;-0.60;99.90;;;-141.84;100.00;119224.81;5092056;28;20226;-61
2024/01/12 02:36:18;;;;;;;12.37;6.70;;;-0.50;99.90;;;-141.84;100.00;119224.81;5091704;28;20583;-60
2024/01/12 02:38:50;;;;;;;13.53;7.70;;;-0.50;99.90;;;-141.84;100.00;119224.81;5092451;28;20193;-61
2024/01/12 02:41:19;;;;;;;13.40;7.53;;;-0.60;99.90;;;-141.84;100.00;119224.81;5092365;28;20705;-62
2024/01/12 02:43:47;;;;;;;13.17;7.90;;;-0.50;99.90;;;-141.84;100.00;119224.81;5091354;28;20228;-61
2024/01/12 02:46:16;;;;;;;13.40;7.63;;;-0.50;99.90;;;-141.84;100.00;119224.81;5091518;28;20218;-61
2024/01/12 02:48:44;;;;;;;15.23;7.57;;;-0.60;99.90;;;-141.84;100.00;119224.81;5091534;28;20227;-62
2024/01/12 02:51:12;;;;;;;12.90;7.97;;;-0.60;99.90;;;-141.84;100.00;119224.81;5090702;28;20720;-61
2024/01/12 02:53:40;;;;;;;13.73;7.93;;;-0.50;99.90;;;-141.84;100.00;119224.81;5090656;28;20393;-61
2024/01/12 02:56:11;;;;;;;13.60;7.90;;;-0.60;99.90;;;-141.84;100.00;119224.81;5090671;28;20210;-60
2024/01/12 02:58:40;;;;;;;14.20;7.90;;;-0.50;99.90;;;-141.84;100.00;119224.81;5090489;28;20225;-60
2024/01/12 03:01:08;;;;;;;14.73;8.53;;;-0.50;99.90;;;-141.84;100.00;119224.81;5091111;28;20227;-61
2024/01/12 03:03:37;;;;;;;13.70;7.97;;;-0.50;99.90;;;-141.84;100.00;119224.81;5086052;28;20242;-61
2024/01/12 03:06:07;;;;;;;18.23;8.47;;;-0.50;99.90;;;-141.84;100.00;119224.81;5086375;28;20230;-61
2024/01/12 03:08:35;;;;;;;15.07;8.10;;;-0.50;99.90;;;-141.84;100.00;119224.81;5086946;28;20254;-62
2024/01/12 03:11:03;;;;;;;15.53;8.43;;;-0.50;99.90;;;-141.84;100.00;119224.81;5090426;28;20238;-61
2024/01/12 03:13:35;;;;;;;13.30;8.07;;;-0.50;99.90;;;-141.84;100.00;119224.81;5086216;28;20327;-60
2024/01/12 03:16:04;;;;;;;16.83;8.33;;;-0.50;99.90;;;-141.84;100.00;119224.81;5087135;28;20238;-60
2024/01/12 03:18:33;;;;;;;16.20;8.80;;;-0.50;99.90;;;-141.84;100.00;119224.81;5076774;28;20222;-61
2024/01/12 03:21:01;;;;;;;18.93;8.43;;;-0.60;99.90;;;-141.84;100.00;119224.81;5086770;28;20434;-62
2024/01/12 03:23:30;;;;;;;13.53;8.90;;;-0.60;99.90;;;-141.84;100.00;119224.81;5088379;28;20292;-61
2024/01/12 03:25:59;;;;;;;17.53;9.37;;;-0.50;99.90;;;-141.84;100.00;119224.81;5091415;28;20283;-61
2024/01/12 03:28:28;;;;;;;15.87;8.53;;;-0.60;99.90;;;-141.84;100.00;119224.81;5091290;28;20230;-61
2024/01/12 03:30:57;;;;;;;14.77;8.80;;;-0.50;99.90;;;-141.84;100.00;119224.81;5091100;28;20276;-60
2024/01/12 03:33:25;;;;;;;14.53;8.40;;;-0.60;99.90;;;-141.84;100.00;119224.81;5090882;28;20228;-61
2024/01/12 03:35:54;;;;;;;16.63;8.80;;;-0.60;99.90;;;-141.84;100.00;119224.81;5090554;28;20246;-60
2024/01/12 03:38:22;;;;;;;15.17;8.83;;;-0.60;99.90;;;-141.84;100.00;119224.81;5091638;28;20219;-61
2024/01/12 03:40:50;;;;;;;14.63;8.10;;;-0.60;99.90;;;-141.84;100.00;119224.81;5090409;28;20735;-61
2024/01/12 03:43:19;;;;;;;15.57;8.43;;;-0.50;99.90;;;-141.84;100.00;119224.81;5091134;28;20280;-61
2024/01/12 03:45:47;;;;;;;16.03;8.47;;;-0.60;99.90;;;-141.84;100.00;119224.81;5090908;28;20223;-60
2024/01/12 03:48:16;;;;;;;20.77;11.17;;;-0.50;99.90;;;-141.84;100.00;119224.81;5090822;28;20260;-61
2024/01/12 03:50:45;;;;;;;16.30;9.07;;;-0.50;99.90;;;-141.84;100.00;119224.81;5089517;28;20242;-62
2024/01/12 03:53:13;;;;;;;17.50;9.20;;;-0.50;99.90;;;-141.84;100.00;119224.81;5090481;28;20204;-60
2024/01/12 03:55:41;;;;;;;18.13;9.20;;;-0.50;99.90;;;-141.84;100.00;119224.81;5090557;28;20774;-61
2024/01/12 03:58:09;;;;;;;18.73;10.23;;;-0.50;99.90;;;-141.84;100.00;119224.81;5090837;28;20279;-61
2024/01/12 04:00:38;;;;;;;16.20;9.10;;;-0.50;99.90;;;-141.84;100.00;119224.81;5091207;28;20257;-60
2024/01/12 04:03:06;;;;;;;17.77;10.00;;;-0.50;99.90;;;-141.84;100.00;119224.81;5090393;28;20272;-61
2024/01/12 04:05:36;;;;;;;16.83;9.00;;;-0.50;99.90;;;-141.84;100.00;119224.81;5090091;28;20817;-61
2024/01/12 04:08:05;;;;;;;18.20;10.30;;;-0.40;99.90;;;-141.84;100.00;119224.81;5091104;28;20223;-61
2024/01/12 04:10:33;;;;;;;17.90;10.43;;;-0.40;99.90;;;-141.84;100.00;119224.81;5090833;28;20235;-61
2024/01/12 04:13:01;;;;;;;19.07;10.00;;;-0.40;99.90;;;-141.84;100.00;119224.81;5090528;28;20314;-61
2024/01/12 04:15:29;;;;;;;17.27;9.90;;;-0.50;99.90;;;-141.84;100.00;119222.75;5090675;28;20303;-61
2024/01/12 04:17:58;;;;;;;18.40;10.33;;;-0.40;99.90;;;-141.84;100.00;119222.75;5090423;28;20224;-61
2024/01/12 04:20:26;;;;;;;14.87;8.50;;;-0.40;99.90;;;-141.84;100.00;119222.75;5090416;28;20199;-61
2024/01/12 04:22:56;;;;;;;16.33;8.80;;;-0.40;99.90;;;-141.84;100.00;119222.75;5088800;28;20211;-61
2024/01/12 04:25:24;;;;;;;18.57;9.33;;;-0.40;99.90;;;-141.84;100.00;119222.75;5081550;28;20226;-61
2024/01/12 04:27:52;;;;;;;15.53;8.17;;;-0.40;99.90;;;-141.84;100.00;119222.75;5093703;28;20223;-61
2024/01/12 04:30:20;;;;;;;13.70;8.30;;;-0.50;99.90;;;-141.84;100.00;119222.75;5110402;28;20230;-61
2024/01/12 04:32:48;;;;;;;14.40;7.03;;;-0.40;99.90;;;-141.84;100.00;119224.81;5110414;28;20228;-61
2024/01/12 04:35:17;;;;;;;15.23;8.23;;;-0.50;99.90;;;-141.84;100.00;119224.81;5110893;28;20290;-61
2024/01/12 04:37:45;;;;;;;14.00;8.03;;;-0.50;99.90;;;-141.84;100.00;119224.81;5105463;28;20653;-61
2024/01/12 04:40:15;;;;;;;13.93;8.47;;;-0.50;99.90;;;-141.84;100.00;119224.81;5110692;28;20221;-61
2024/01/12 04:42:43;;;;;;;13.73;7.70;;;-0.50;99.90;;;-141.84;100.00;119224.81;5110699;28;20658;-61
2024/01/12 04:45:11;;;;;;;12.90;7.40;;;-0.50;99.90;;;-141.84;100.00;119224.81;5110857;28;20277;-60
2024/01/12 04:47:40;;;;;;;14.90;7.77;;;-0.50;99.90;;;-141.84;100.00;119224.81;5110353;28;20679;-61
2024/01/12 04:50:08;;;;;;;14.50;8.20;;;-0.40;99.90;;;-141.84;100.00;118956.03;5110899;28;20289;-61
2024/01/12 04:52:36;;;;;;;14.00;8.03;;;-0.40;99.90;;;-141.84;100.00;118422.72;5109523;28;20306;-62
2024/01/12 04:55:05;;;;;;;13.60;7.97;;;-0.40;99.90;;;-141.84;100.00;118689.38;5110644;28;20226;-60
2024/01/12 04:57:34;;;;;;;14.63;7.73;;;-0.50;99.90;;;-141.84;100.00;119222.75;5102293;28;20217;-60
2024/01/12 05:00:03;;;;;;;16.33;8.70;;;-0.50;99.90;;;-141.84;100.00;119222.75;5111126;28;20246;-60
2024/01/12 05:02:31;;;;;;;14.77;8.20;;;-0.50;99.90;;;-141.84;100.00;119224.81;5110671;28;20211;-60
2024/01/12 05:05:00;;;;;;;17.97;9.00;;;-0.50;99.90;;;-141.84;100.00;119224.81;5110630;28;20230;-61
2024/01/12 05:07:28;;;;;;;17.37;8.80;;;-0.40;99.90;;;-141.84;100.00;119224.81;5110439;28;20606;-60
2024/01/12 05:09:56;;;;;;;18.30;9.00;;;-0.40;99.90;;;-141.84;100.00;119224.81;5110258;28;20650;-61
2024/01/12 05:12:24;;;;;;;15.80;8.07;;;-0.40;99.90;;;-141.84;100.00;119224.81;5110994;28;20223;-60
2024/01/12 05:14:54;;;;;;;18.10;8.47;;;-0.40;99.90;;;-141.84;100.00;119224.81;5105649;28;20221;-61
2024/01/12 05:17:24;;;;;;;17.50;8.77;;;-0.40;99.90;;;-141.84;100.00;119224.81;5113345;28;20230;-62
2024/01/12 05:19:52;;;;;;;14.47;8.47;;;-0.40;99.90;;;-141.84;100.00;119224.81;5114992;28;20926;-61
2024/01/12 05:22:21;;;;;;;15.73;7.90;;;-0.40;99.90;;;-141.84;100.00;119224.81;5113892;28;20642;-61
2024/01/12 05:24:49;;;;;;;16.53;8.57;;;-0.40;99.90;;;-141.84;100.00;119224.81;5113895;28;20280;-61
2024/01/12 05:27:17;;;;;;;14.70;8.57;;;-0.40;99.90;;;-141.84;100.00;119224.81;5113559;28;20242;-60
2024/01/12 05:29:45;;;;;;;18.37;9.37;;;-0.40;99.90;;;-141.84;100.00;119224.81;5113285;28;20221;-61
2024/01/12 05:32:15;;;;;;;16.13;9.13;;;-0.40;99.90;;;-141.84;100.00;119224.81;5105325;28;20292;-60
2024/01/12 05:34:43;;;;;;;19.10;9.37;;;-0.50;99.90;;;-141.84;100.00;119224.81;5113051;28;20318;-60
2024/01/12 05:37:12;;;;;;;17.97;9.10;;;-0.40;99.90;;;-141.84;100.00;119224.81;5105929;28;20319;-61
2024/01/12 05:39:40;;;;;;;24.50;10.47;;;-0.40;99.90;;;-141.84;100.00;119224.81;5112199;28;20276;-60
2024/01/12 05:42:08;;;;;;;21.13;9.63;;;-0.40;99.90;;;-141.84;100.00;119224.81;5111990;28;20317;-61
2024/01/12 05:44:36;;;;;;;22.13;9.70;;;-0.40;99.90;;;-141.84;100.00;119224.81;5111797;27;20776;-60
2024/01/12 05:47:06;;;;;;;19.07;9.23;;;-0.50;99.90;;;-141.84;100.00;119224.81;5110266;28;20654;-60
2024/01/12 05:49:37;;;;;;;20.50;10.07;;;-0.40;99.90;;;-141.84;100.00;119224.81;5111410;28;20316;-61
2024/01/12 05:52:06;;;;;;;21.97;10.50;;;-0.40;99.90;;;-141.84;100.00;119224.81;5107297;28;20223;-61
2024/01/12 05:54:34;;;;;;;19.20;9.37;;;-0.40;99.90;;;-141.84;100.00;119224.81;5113172;27;20711;-60
2024/01/12 05:57:03;;;;;;;25.13;11.53;;;-0.40;99.90;;;-141.84;100.00;119224.81;5113512;28;20283;-60
2024/01/12 05:59:32;;;;;;;25.50;11.07;;;-0.50;99.90;;;-141.84;100.00;119224.81;5113389;28;20199;-60
2024/01/12 06:02:01;;;;;;;20.77;10.03;;;-0.40;99.90;;;-141.84;100.00;119222.75;5113480;28;20221;-62
2024/01/12 06:04:29;;;;;;;22.60;10.23;;;-0.40;99.90;;;-141.84;100.00;119222.75;5112477;28;20249;-62
2024/01/12 06:06:58;;;;;;;20.50;10.20;;;-0.40;99.90;;;-141.84;100.00;119222.75;5112688;27;20310;-61
2024/01/12 06:09:26;;;;;;;23.00;10.70;;;-0.40;99.90;;;-141.84;100.00;119224.81;5113476;27;20314;-61
2024/01/12 06:11:55;;;;;;;22.30;9.97;;;-0.40;99.90;;;-141.84;100.00;119224.81;5113334;27;20304;-60
2024/01/12 06:14:23;;;;;;;19.50;9.80;;;-0.40;99.90;;;-141.84;100.00;119224.81;5113676;28;20635;-62
2024/01/12 06:16:52;;;;;;;21.57;9.77;;;-0.40;99.90;;;-141.84;100.00;119224.81;5112925;28;20219;-60
2024/01/12 06:19:20;;;;;;;20.87;10.20;;;-0.40;99.90;;;-141.84;100.00;119224.81;5112512;28;20618;-61
2024/01/12 06:21:48;;;;;;;22.00;10.93;;;-0.40;99.90;;;-141.84;100.00;119224.81;5112238;28;20219;-60
2024/01/12 06:24:18;;;;;;;21.47;9.97;;;-0.40;99.90;;;-141.84;100.00;119224.81;5112630;28;20226;-62
2024/01/12 06:26:46;;;;;;;18.73;9.87;;;-0.40;99.90;;;-141.84;100.00;119224.81;5112543;28;20295;-61
2024/01/12 06:29:14;;;;;;;19.57;9.83;;;-0.40;99.90;;;-141.84;100.00;119224.81;5113396;28;20223;-60
2024/01/12 06:31:43;;;;;;;19.03;10.10;;;-0.40;99.90;;;-141.84;100.00;119224.81;5112938;28;20231;-60
2024/01/12 06:34:11;;;;;;;20.47;10.43;;;-0.40;99.90;;;-141.84;100.00;119224.81;5112395;28;20280;-60
2024/01/12 06:36:43;;;;;;;15.10;9.33;;;-0.40;99.90;;;-141.84;100.00;119224.81;5112076;28;20218;-60
2024/01/12 06:39:11;;;;;;;21.17;10.13;;;-0.40;99.90;;;-141.84;100.00;119224.81;5112671;28;20753;-60
2024/01/12 06:41:46;;;;;;;19.53;10.83;;;-0.40;99.90;;;-141.84;100.00;119224.81;5104513;28;20664;-60
2024/01/12 06:44:15;;;;;;;17.70;10.30;;;-0.40;99.90;;;-141.84;100.00;119224.81;5113112;28;20594;-60
2024/01/12 06:46:44;;;;;;;18.03;9.33;;;-0.40;99.90;;;-141.84;100.00;119224.81;5112324;28;20672;-61
2024/01/12 06:49:13;;;;;;;19.93;10.03;;;-0.40;99.90;;;-141.84;100.00;119224.81;5112321;27;20224;-60
2024/01/12 06:51:41;;;;;;;15.53;9.10;;;-0.40;99.90;;;-141.84;100.00;119224.81;5111729;28;20211;-61
2024/01/12 06:54:12;;;;;;;16.70;9.70;;;-0.40;99.90;;;-141.84;100.00;119224.81;5112381;28;20237;-61
2024/01/12 06:56:42;;;;;;;17.10;9.63;;;-0.40;99.90;;;-141.84;100.00;119224.81;5112223;28;20693;-61
2024/01/12 06:59:11;;;;;;;17.23;9.13;;;-0.30;99.90;;;-141.84;100.00;119224.81;5112638;28;20197;-61
2024/01/12 07:01:39;;;;;;;16.33;9.33;;;-0.40;99.90;;;-141.84;100.00;119224.81;5104150;28;20246;-61
2024/01/12 07:04:08;;;;;;;16.97;9.33;;;-0.40;99.90;;;-141.84;100.00;119224.81;5111817;28;20231;-61
2024/01/12 07:06:36;;;;;;;18.57;10.17;;;-0.40;99.90;;;-141.84;100.00;119224.81;5111402;28;20219;-60
2024/01/12 07:09:06;;;;;;;17.00;9.50;;;-0.40;99.90;;;-141.84;100.00;119224.81;5111853;28;20581;-64
2024/01/12 07:11:34;;;;;;;15.77;9.37;;;-0.40;99.90;;;-141.84;100.00;119224.81;5112324;28;20206;-61
2024/01/12 07:14:03;;;;;;;16.80;9.33;;;-0.40;99.90;;;-141.84;100.00;119224.81;5112276;28;20915;-61
2024/01/12 07:16:32;;;;;;;18.70;10.13;;;-0.40;99.90;;;-141.84;100.00;119224.81;5108368;27;20248;-61
2024/01/12 07:19:00;;;;;;;14.57;9.07;;;-0.40;99.90;;;-141.84;100.00;119224.81;5109648;28;20250;-62
2024/01/12 07:21:29;;;;;;;15.37;9.57;;;-0.40;99.90;;;-141.84;100.00;119224.81;5116041;27;20223;-62
2024/01/12 07:23:57;;;;;;;16.27;9.10;;;-0.40;99.90;;;-141.84;100.00;119224.81;5111171;28;20295;-62
2024/01/12 07:26:25;;;;;;;16.03;9.53;;;-0.40;99.90;;;-141.84;100.00;119224.81;5104219;28;20204;-60
2024/01/12 07:28:54;;;;;;;16.70;9.53;;;-0.40;99.90;;;-141.84;100.00;119224.81;5112108;28;20225;-61
2024/01/12 07:31:22;;;;;;;14.87;8.83;;;-0.40;99.90;;;-141.84;100.00;119224.81;5110711;28;20585;-60
2024/01/12 07:33:52;;;;;;;14.97;8.80;;;-0.40;99.90;;;-141.84;100.00;119224.81;5106341;28;20306;-61
2024/01/12 07:36:21;;;;;;;16.73;10.13;;;-0.40;99.90;;;-141.84;100.00;119224.81;5089565;27;20236;-61
2024/01/12 07:38:49;;;;;;;18.13;9.93;;;-0.40;99.90;;;-141.84;100.00;119224.81;5090902;28;20281;-61
2024/01/12 07:41:17;;;;;;;15.93;10.30;;;-0.40;99.90;;;-141.84;100.00;119224.81;5091378;28;20198;-61
2024/01/12 07:43:45;;;;;;;17.63;10.80;;;-0.30;99.90;;;-141.84;100.00;119224.81;5099876;28;20289;-61
2024/01/12 07:46:18;;;;;;;16.97;10.43;;;-0.30;99.90;;;-141.84;100.00;119224.81;5105954;27;20298;-60
2024/01/12 07:48:49;;;;;;;20.73;11.47;;;-0.30;99.90;;;-141.84;100.00;119224.81;5110928;28;20268;-62
2024/01/12 07:51:19;;;;;;;17.20;10.73;;;-0.30;99.90;;;-141.84;100.00;119224.81;5105639;28;20240;-62
2024/01/12 07:53:47;;;;;;;19.00;10.90;;;-0.30;99.90;;;-141.84;100.00;119224.81;5110386;27;20236;-63
2024/01/12 07:56:15;;;;;;;24.17;11.70;;;-0.30;99.90;;;-141.84;100.00;119224.81;5105382;28;20233;-61
2024/01/12 07:58:44;;;;;;;23.80;11.30;;;-0.20;99.90;;;-141.84;100.00;119224.81;5108094;27;20612;-60
2024/01/12 08:01:13;;;;;;;25.43;13.97;;;-0.30;99.90;;;-141.84;100.00;119224.81;5095586;28;20220;-60
2024/01/12 08:03:45;;;;;;;21.90;12.03;;;-0.20;99.90;;;-141.84;100.00;119224.81;5097044;28;20223;-61
2024/01/12 08:06:14;;;;;;;21.17;11.77;;;-0.20;99.90;;;-141.84;100.00;119224.81;5102653;28;20947;-63
2024/01/12 08:08:45;;;;;;;18.83;10.80;;;-0.20;99.90;;;-141.84;100.00;119224.81;5106719;28;20198;-62
2024/01/12 08:11:13;;;;;;;21.50;11.83;;;-0.10;99.90;;;-141.84;100.00;119224.81;5112340;28;20207;-60
2024/01/12 08:13:59;;;;;;;17.17;10.73;;;-0.10;99.90;;;-141.84;100.00;119222.75;5111173;28;20214;-60
2024/01/12 08:16:27;;;;;;;21.77;11.73;;;-0.10;99.90;;;-141.84;100.00;119222.75;5113534;28;20253;-61
2024/01/12 08:18:55;;;;;;;20.97;11.17;;;-0.10;99.90;;;-141.84;100.00;118956.03;5110540;28;20305;-60
2024/01/12 08:21:24;;;;;;;19.93;11.40;;;-0.10;99.90;;;-141.84;100.00;118956.03;5107517;28;20220;-61
2024/01/12 08:23:56;;;;;;;18.03;10.70;;;-0.10;99.90;;;-141.84;100.00;118689.38;5104796;28;20235;-61
2024/01/12 08:26:24;;;;;;;22.07;12.57;;;-0.10;99.90;;;-141.84;100.00;117889.44;5106016;28;20206;-60
2024/01/12 08:28:55;;;;;;;21.63;11.93;;;0.00;99.90;;;-141.84;100.00;116556.59;5106957;28;20283;-60
2024/01/12 08:31:23;;;;;;;21.57;12.23;;;0.00;99.90;;;-141.84;100.00;117089.69;5116661;28;20309;-61
2024/01/12 08:33:52;;;;;;;20.63;11.83;;;0.10;99.90;;;-141.84;100.00;117089.69;5112752;27;20230;-60
2024/01/12 08:36:20;;;;;;;19.67;11.37;;;0.10;99.90;;;-141.84;100.00;117356.25;5111764;28;20312;-59
2024/01/12 08:38:48;;;;;;;26.87;14.33;;;0.10;99.90;;;-141.84;100.00;117889.44;5110692;28;20284;-61
2024/01/12 08:41:18;;;;;;;23.33;13.40;;;0.10;99.90;;;-141.84;100.00;117356.25;5111264;28;20244;-60
2024/01/12 08:43:46;;;;;;;23.53;12.83;;;0.10;99.90;;;-141.84;100.00;117622.84;5110613;28;20272;-60
2024/01/12 08:46:15;;;;;;;24.67;13.50;;;0.20;99.90;;;-141.84;100.00;117356.25;5114394;28;20242;-60
2024/01/12 08:48:43;;;;;;;20.80;13.10;;;0.20;99.90;;;-141.84;100.00;116823.13;5112570;27;20674;-60
2024/01/12 08:51:11;;;;;;;24.60;13.90;;;0.20;99.90;;;-141.84;100.00;115757.06;5114324;27;20687;-60
2024/01/12 08:53:40;;;;;;;31.00;17.40;;;0.20;99.90;;;-141.84;100.00;115757.06;5110463;27;20199;-61
2024/01/12 08:56:08;;;;;;;29.67;17.57;;;0.20;99.90;;;-141.84;100.00;115490.59;5115064;28;20191;-61
2024/01/12 08:58:38;;;;;;;29.33;15.87;;;0.30;99.90;;;-141.84;100.00;116290.06;5114450;27;20238;-60
2024/01/12 09:01:07;;;;;;;30.13;16.30;;;0.30;99.90;;;-141.84;100.00;116823.13;5114336;27;20361;-59
2024/01/12 09:03:35;;;;;;;26.63;15.40;;;0.40;99.90;;;-141.84;100.00;117356.25;5114067;28;20643;-61
2024/01/12 09:06:04;;;;;;;30.93;15.27;;;0.30;99.90;;;-141.84;100.00;117889.44;5115080;27;20287;-61
2024/01/12 09:08:33;;;;;;;27.67;15.40;;;0.30;99.90;;;-141.84;100.00;118422.72;5116265;27;20206;-60
2024/01/12 09:11:03;;;;;;;24.77;14.87;;;0.40;99.90;;;-141.84;100.00;118422.72;5114555;28;20215;-60
2024/01/12 09:13:31;;;;;;;29.63;16.63;;;0.40;99.90;;;-141.84;100.00;117889.44;5114222;27;20228;-60
2024/01/12 09:16:01;;;;;;;23.10;14.83;;;0.50;99.90;;;-141.84;100.00;117622.84;5113920;27;20246;-60
2024/01/12 09:18:29;;;;;;;23.20;14.17;;;0.50;99.90;;;-141.84;100.00;116823.13;5105442;27;20221;-60
2024/01/12 09:20:57;;;;;;;28.50;15.23;;;0.50;99.90;;;-141.84;100.00;116556.59;5085830;28;20307;-60
2024/01/12 09:23:26;;;;;;;25.67;14.40;;;0.50;99.90;;;-141.84;100.00;116556.59;5092220;28;20203;-59
2024/01/12 09:25:54;;;;;;;22.23;14.40;;;0.50;99.90;;;-141.84;100.00;116823.13;5089040;28;20208;-60
2024/01/12 09:28:23;;;;;;;25.53;14.37;;;0.50;99.90;;;-141.84;100.00;117089.69;5091677;28;20223;-60
2024/01/12 09:30:51;;;;;;;25.70;13.67;;;0.50;99.90;;;-141.84;100.00;115757.06;5094018;28;20243;-61
2024/01/12 09:33:21;;;;;;;24.50;14.50;;;0.60;99.90;;;-141.84;100.00;115224.16;5091153;28;20234;-61
2024/01/12 09:35:49;;;;;;;24.77;14.37;;;0.50;99.90;;;-141.84;100.00;115490.59;5088656;28;20224;-61
2024/01/12 09:38:18;;;;;;;24.90;15.30;;;0.60;99.90;;;-141.84;100.00;115757.06;5086916;28;20766;-61
2024/01/12 09:40:47;;;;;;;25.27;14.27;;;0.60;99.90;;;-141.84;100.00;116556.59;5080765;28;20216;-61
2024/01/12 09:43:16;;;;;;;24.47;12.97;;;0.60;99.90;;;-141.84;100.00;116290.06;5089601;28;20225;-60
2024/01/12 09:45:46;;;;;;;25.17;14.07;;;0.70;99.90;;;-141.84;100.00;116556.59;5097953;28;20211;-60
2024/01/12 09:48:14;;;;;;;23.33;14.10;;;0.70;99.90;;;-141.84;100.00;115490.59;5110845;27;20242;-60
2024/01/12 09:50:45;;;;;;;23.37;13.27;;;0.80;99.90;;;-141.84;100.00;115490.59;5111785;28;20772;-60